Time;durP1;ratioP1;P1;durP2;ratioP2;P2;SDS_P1;SDS_P2;PMS_P1;PMS_P2;Temp;Humidity;BMP_temperature;BMP_pressure;BME280_temperature;BME280_humidity;BME280_pressure;Samples;Min_cycle;Max_cycle;Signal;HPM_P1;HPM_P2
2020/12/04 00:00:26;;;;;;;48.25;19.23;;;;;;;0.51;76.83;97900.77;2220706;80;21268;-61
2020/12/04 00:03:30;;;;;;;48.42;19.40;;;;;;;0.50;76.83;97895.66;2220123;80;21118;-61
2020/12/04 00:06:31;;;;;;;47.48;19.05;;;;;;;0.50;76.91;97887.49;2220383;80;21135;-61
2020/12/04 00:09:32;;;;;;;42.27;17.80;;;;;;;0.52;76.84;97895.17;2220698;80;21689;-61
2020/12/04 00:12:34;;;;;;;44.77;18.12;;;;;;;0.53;76.63;97888.27;2220519;80;21586;-61
2020/12/04 00:15:35;;;;;;;44.70;18.32;;;;;;;0.50;76.66;97881.05;2220339;80;21598;-61
2020/12/04 00:18:36;;;;;;;48.98;18.70;;;;;;;0.50;76.38;97888.78;2220508;80;21732;-61
2020/12/04 00:21:38;;;;;;;41.88;16.93;;;;;;;0.48;76.38;97887.98;2220683;80;21562;-61
2020/12/04 00:24:39;;;;;;;41.28;16.30;;;;;;;0.46;76.43;97894.08;2220485;80;21612;-61
2020/12/04 00:27:40;;;;;;;48.68;19.07;;;;;;;0.43;76.22;97894.19;2220670;80;21157;-61
2020/12/04 00:30:41;;;;;;;45.83;17.80;;;;;;;0.44;76.54;97907.04;2220828;80;21585;-61
2020/12/04 00:33:43;;;;;;;43.35;16.65;;;;;;;0.43;76.18;97897.64;2220505;80;21610;-61
2020/12/04 00:36:45;;;;;;;42.95;17.25;;;;;;;0.41;75.95;97876.19;2220647;80;21134;-61
2020/12/04 00:39:46;;;;;;;41.03;16.83;;;;;;;0.40;75.74;97855.60;2221184;80;21558;-61
2020/12/04 00:42:48;;;;;;;40.58;16.50;;;;;;;0.36;75.64;97851.44;2220366;80;21609;-61
2020/12/04 00:45:49;;;;;;;43.83;17.35;;;;;;;0.31;75.75;97840.84;2220513;80;21316;-61
2020/12/04 00:48:50;;;;;;;42.27;17.62;;;;;;;0.29;76.12;97860.70;2220503;80;21166;-61
2020/12/04 00:51:51;;;;;;;39.30;16.67;;;;;;;0.29;75.81;97858.58;2220680;80;21158;-61
2020/12/04 00:54:52;;;;;;;41.42;15.72;;;;;;;0.28;75.95;97853.84;2220344;80;21142;-61
2020/12/04 00:57:53;;;;;;;41.50;16.12;;;;;;;0.25;75.79;97847.51;2220674;80;21114;-61
2020/12/04 01:00:55;;;;;;;40.80;15.98;;;;;;;0.24;75.81;97863.04;2220452;80;21273;-61
2020/12/04 01:03:56;;;;;;;41.63;16.55;;;;;;;0.22;75.64;97866.13;2220672;80;21261;-60
2020/12/04 01:06:57;;;;;;;43.78;17.17;;;;;;;0.21;75.56;97865.27;2220499;80;21289;-60
2020/12/04 01:09:58;;;;;;;41.28;16.48;;;;;;;0.20;75.95;97865.33;2220616;80;21996;-61
2020/12/04 01:13:00;;;;;;;40.50;15.53;;;;;;;0.17;75.83;97871.42;2220847;80;21285;-61
2020/12/04 01:16:02;;;;;;;42.93;16.93;;;;;;;0.17;75.73;97863.69;2220857;80;21147;-61
2020/12/04 01:19:03;;;;;;;40.00;15.68;;;;;;;0.16;75.65;97862.02;2220471;80;21118;-61
2020/12/04 01:22:05;;;;;;;37.03;15.13;;;;;;;0.14;75.95;97871.53;2220708;80;21129;-61
2020/12/04 01:25:06;;;;;;;40.70;16.12;;;;;;;0.10;75.84;97878.97;2220866;80;21131;-61
2020/12/04 01:28:07;;;;;;;39.48;15.43;;;;;;;0.09;75.74;97883.30;2220318;80;21150;-61
2020/12/04 01:31:09;;;;;;;39.35;16.12;;;;;;;0.08;75.61;97876.91;2220449;80;21305;-61
2020/12/04 01:34:10;;;;;;;38.90;15.65;;;;;;;0.08;75.78;97865.30;2220311;80;21154;-61
2020/12/04 01:37:11;;;;;;;40.50;15.83;;;;;;;0.03;75.50;97853.86;2220753;80;21130;-61
2020/12/04 01:40:12;;;;;;;38.30;15.25;;;;;;;0.02;75.47;97843.61;2220750;80;21146;-61
2020/12/04 01:43:13;;;;;;;38.90;15.53;;;;;;;-0.02;75.74;97842.85;2220539;80;21114;-61
2020/12/04 01:46:15;;;;;;;39.88;15.93;;;;;;;-0.04;75.76;97844.19;2216924;80;21257;-61
2020/12/04 01:49:16;;;;;;;41.95;16.40;;;;;;;-0.05;75.80;97827.48;2216861;80;21158;-61
2020/12/04 01:52:17;;;;;;;43.08;16.77;;;;;;;-0.07;75.66;97823.67;2217239;80;21577;-61
2020/12/04 01:55:18;;;;;;;42.10;16.45;;;;;;;-0.08;75.90;97825.85;2217160;80;21276;-61
2020/12/04 01:58:19;;;;;;;40.17;15.48;;;;;;;-0.12;75.80;97824.27;2217288;80;21122;-61
2020/12/04 02:01:21;;;;;;;39.23;14.40;;;;;;;-0.11;75.54;97808.38;2217372;80;21249;-61
2020/12/04 02:04:22;;;;;;;39.15;15.05;;;;;;;-0.09;75.77;97799.67;2217238;80;21134;-61
2020/12/04 02:07:23;;;;;;;40.00;15.05;;;;;;;-0.08;75.67;97799.23;2216872;80;21281;-61
2020/12/04 02:10:25;;;;;;;41.33;16.07;;;;;;;-0.08;75.78;97776.04;2217273;80;21142;-61
2020/12/04 02:13:26;;;;;;;36.15;13.75;;;;;;;-0.07;75.45;97754.07;2216809;80;21269;-60
2020/12/04 02:16:27;;;;;;;37.65;14.45;;;;;;;-0.04;75.78;97750.55;2217152;80;21293;-61
2020/12/04 02:19:29;;;;;;;38.38;14.18;;;;;;;-0.02;75.75;97756.02;2216977;80;21795;-61
2020/12/04 02:22:30;;;;;;;37.55;14.38;;;;;;;0.00;75.56;97762.44;2216899;80;21705;-61
2020/12/04 02:25:31;;;;;;;35.73;13.65;;;;;;;0.01;75.67;97765.85;2216985;80;21745;-61
2020/12/04 02:28:32;;;;;;;38.75;15.20;;;;;;;0.02;75.37;97759.80;2217370;80;21296;-61
2020/12/04 02:31:34;;;;;;;36.88;14.18;;;;;;;0.04;75.74;97769.60;2216940;80;21170;-61
2020/12/04 02:34:35;;;;;;;35.83;13.75;;;;;;;0.03;75.76;97763.62;2216812;80;21277;-61
2020/12/04 02:37:37;;;;;;;39.30;15.28;;;;;;;0.02;75.62;97755.48;2217255;80;21684;-61
2020/12/04 02:40:38;;;;;;;39.42;15.68;;;;;;;0.03;75.71;97757.59;2216965;80;21610;-60
2020/12/04 02:43:40;;;;;;;37.20;14.65;;;;;;;0.03;75.46;97755.02;2216405;80;21724;-61
2020/12/04 02:46:41;;;;;;;35.80;14.15;;;;;;;0.01;75.58;97742.19;2209933;80;21265;-61
2020/12/04 02:49:42;;;;;;;37.20;13.80;;;;;;;-0.01;75.76;97752.56;2209760;81;21309;-61
2020/12/04 02:52:43;;;;;;;36.93;14.30;;;;;;;-0.01;75.86;97751.27;2209847;81;21297;-61
2020/12/04 02:55:44;;;;;;;38.13;15.78;;;;;;;-0.01;75.83;97751.73;2209587;81;21257;-60
2020/12/04 02:58:46;;;;;;;37.67;13.80;;;;;;;-0.01;76.01;97747.40;2210154;81;21308;-61
2020/12/04 03:01:47;;;;;;;36.68;14.65;;;;;;;-0.03;75.85;97744.05;2209644;81;21265;-61
2020/12/04 03:04:48;;;;;;;36.88;14.13;;;;;;;-0.04;76.15;97755.25;2209603;80;21181;-61
2020/12/04 03:07:50;;;;;;;35.98;13.70;;;;;;;-0.05;76.04;97736.80;2210040;80;21258;-61
2020/12/04 03:10:51;;;;;;;35.38;14.25;;;;;;;-0.04;76.08;97746.69;2209755;81;21753;-61
2020/12/04 03:13:52;;;;;;;36.40;15.32;;;;;;;-0.04;76.12;97737.66;2209662;80;21717;-60
2020/12/04 03:16:53;;;;;;;36.70;14.05;;;;;;;-0.04;76.21;97742.81;2210127;81;21293;-61
2020/12/04 03:19:54;;;;;;;37.63;14.70;;;;;;;-0.06;76.10;97744.59;2209663;81;21116;-61
2020/12/04 03:22:56;;;;;;;40.58;15.20;;;;;;;-0.05;76.23;97747.11;2209680;81;21285;-61
2020/12/04 03:25:57;;;;;;;39.63;16.00;;;;;;;-0.05;76.23;97736.80;2209765;80;21701;-61
2020/12/04 03:28:58;;;;;;;37.38;15.05;;;;;;;-0.06;76.20;97727.41;2209717;80;21793;-61
2020/12/04 03:32:00;;;;;;;36.23;14.15;;;;;;;-0.06;76.39;97716.23;2210202;81;21167;-61
2020/12/04 03:35:01;;;;;;;35.25;13.72;;;;;;;-0.05;76.42;97711.48;2209960;81;21300;-61
2020/12/04 03:38:02;;;;;;;38.40;14.95;;;;;;;-0.09;76.46;97690.11;2209716;81;21590;-61
2020/12/04 03:41:03;;;;;;;36.50;13.68;;;;;;;-0.10;76.46;97687.59;2209577;81;21182;-61
2020/12/04 03:44:04;;;;;;;41.00;15.55;;;;;;;-0.09;76.59;97707.33;2210695;80;21297;-61
2020/12/04 03:47:05;;;;;;;37.28;14.90;;;;;;;-0.10;76.62;97706.92;2216872;80;21257;-61
2020/12/04 03:50:07;;;;;;;38.15;15.23;;;;;;;-0.10;76.74;97721.09;2216831;80;21289;-61
2020/12/04 03:53:08;;;;;;;42.03;16.02;;;;;;;-0.12;76.90;97711.30;2216722;80;21162;-61
2020/12/04 03:56:09;;;;;;;37.13;15.15;;;;;;;-0.12;76.99;97700.53;2216750;80;21135;-61
2020/12/04 03:59:10;;;;;;;40.40;15.95;;;;;;;-0.11;77.00;97703.97;2216916;80;21277;-60
2020/12/04 04:02:12;;;;;;;40.73;16.05;;;;;;;-0.09;77.12;97701.70;2216993;80;21138;-61
2020/12/04 04:05:13;;;;;;;38.38;15.68;;;;;;;-0.06;77.13;97721.39;2217065;80;21173;-61
2020/12/04 04:08:14;;;;;;;37.23;14.98;;;;;;;-0.04;77.21;97711.42;2216881;80;21844;-61
2020/12/04 04:11:15;;;;;;;42.83;15.38;;;;;;;-0.01;77.39;97710.48;2216785;80;21161;-61
2020/12/04 04:14:16;;;;;;;42.45;16.48;;;;;;;0.06;77.40;97712.36;2216801;80;21717;-61
2020/12/04 04:17:18;;;;;;;37.83;15.10;;;;;;;0.11;77.52;97712.59;2217276;80;21294;-61
2020/12/04 04:20:19;;;;;;;37.98;15.23;;;;;;;0.17;77.41;97728.29;2217572;80;21331;-60
2020/12/04 04:23:21;;;;;;;40.80;16.30;;;;;;;0.23;77.33;97731.95;2216903;80;21593;-61
2020/12/04 04:26:22;;;;;;;37.38;15.20;;;;;;;0.26;77.36;97726.68;2216884;80;21581;-61
2020/12/04 04:29:24;;;;;;;37.93;15.25;;;;;;;0.30;77.18;97717.08;2216869;80;21605;-61
2020/12/04 04:32:25;;;;;;;44.30;16.05;;;;;;;0.33;77.17;97713.95;2216740;80;21170;-61
2020/12/04 04:35:26;;;;;;;46.20;17.45;;;;;;;0.34;77.11;97718.64;2216718;80;21301;-62
2020/12/04 04:38:27;;;;;;;39.83;15.48;;;;;;;0.38;77.10;97729.70;2216766;80;21296;-61
2020/12/04 04:41:28;;;;;;;37.20;14.80;;;;;;;0.37;77.03;97718.53;2216789;80;21174;-61
2020/12/04 04:44:29;;;;;;;37.28;15.05;;;;;;;0.40;76.91;97713.25;2215875;80;21269;-61
2020/12/04 04:47:30;;;;;;;35.78;14.20;;;;;;;0.40;76.97;97726.61;2209712;81;21277;-61
2020/12/04 04:50:32;;;;;;;36.53;15.08;;;;;;;0.38;76.85;97721.97;2187967;81;21693;-61
2020/12/04 04:53:33;;;;;;;39.67;14.90;;;;;;;0.38;76.97;97718.92;2209739;81;21273;-61
2020/12/04 04:56:34;;;;;;;35.98;15.25;;;;;;;0.38;77.01;97725.84;2209724;81;21289;-61
2020/12/04 04:59:35;;;;;;;36.20;15.63;;;;;;;0.34;76.98;97722.09;2209906;80;21297;-61
2020/12/04 05:02:36;;;;;;;36.98;15.25;;;;;;;0.34;76.98;97726.38;2210231;80;21309;-61
2020/12/04 05:05:38;;;;;;;40.15;16.07;;;;;;;0.31;77.03;97727.33;2210261;81;21285;-61
2020/12/04 05:08:39;;;;;;;39.60;15.93;;;;;;;0.29;77.05;97739.45;2209729;81;21313;-61
2020/12/04 05:11:40;;;;;;;40.15;14.90;;;;;;;0.29;77.22;97728.31;2209812;80;21733;-61
2020/12/04 05:14:41;;;;;;;41.68;17.67;;;;;;;0.30;77.18;97736.42;2209830;81;21638;-61
2020/12/04 05:17:43;;;;;;;41.02;14.83;;;;;;;0.28;77.22;97745.51;2210222;81;21273;-61
2020/12/04 05:20:44;;;;;;;39.35;15.45;;;;;;;0.29;77.41;97743.33;2210226;81;21292;-60
2020/12/04 05:23:45;;;;;;;39.85;16.23;;;;;;;0.28;77.47;97749.38;2210222;81;21272;-61
2020/12/04 05:26:46;;;;;;;38.02;15.70;;;;;;;0.29;77.50;97747.66;2209727;81;21350;-60
2020/12/04 05:29:47;;;;;;;36.85;14.35;;;;;;;0.28;77.56;97725.33;2209732;81;21316;-61
2020/12/04 05:32:48;;;;;;;42.43;16.62;;;;;;;0.29;77.56;97730.89;2209848;81;21288;-61
2020/12/04 05:35:50;;;;;;;39.42;17.10;;;;;;;0.30;77.57;97728.25;2187589;81;21590;-61
2020/12/04 05:38:51;;;;;;;38.05;15.70;;;;;;;0.31;77.57;97714.89;2209679;80;21260;-61
2020/12/04 05:41:53;;;;;;;41.68;15.93;;;;;;;0.31;77.57;97714.44;2210203;81;21285;-61
2020/12/04 05:44:54;;;;;;;39.78;16.60;;;;;;;0.29;77.56;97712.84;2211468;80;21678;-61
2020/12/04 05:47:56;;;;;;;40.40;16.60;;;;;;;0.29;77.68;97715.41;2217075;80;21265;-61
2020/12/04 05:50:57;;;;;;;41.20;16.30;;;;;;;0.28;77.72;97715.84;2217425;80;21260;-61
2020/12/04 05:53:58;;;;;;;42.33;16.90;;;;;;;0.28;77.83;97709.86;2217230;80;21312;-61
2020/12/04 05:57:00;;;;;;;40.40;15.45;;;;;;;0.27;77.87;97703.84;2216899;80;21625;-60
2020/12/04 06:00:01;;;;;;;40.03;15.98;;;;;;;0.26;77.86;97705.19;2217407;80;21276;-61
2020/12/04 06:03:02;;;;;;;38.53;15.05;;;;;;;0.27;77.94;97705.13;2216852;80;21134;-61
2020/12/04 06:06:03;;;;;;;39.92;15.75;;;;;;;0.26;77.90;97699.59;2216914;80;21272;-61
2020/12/04 06:09:04;;;;;;;38.17;15.25;;;;;;;0.28;77.81;97699.08;2216922;80;21245;-61
2020/12/04 06:12:06;;;;;;;36.93;14.83;;;;;;;0.27;77.91;97699.13;2217012;80;21779;-61
2020/12/04 06:15:07;;;;;;;37.58;14.80;;;;;;;0.26;77.89;97705.19;2217281;80;21566;-61
2020/12/04 06:18:08;;;;;;;41.63;14.87;;;;;;;0.26;77.85;97715.07;2217225;80;21604;-61
2020/12/04 06:21:10;;;;;;;43.30;17.47;;;;;;;0.27;77.78;97718.48;2217621;80;21277;-61
2020/12/04 06:24:11;;;;;;;40.80;16.02;;;;;;;0.26;77.77;97739.58;2216924;80;21277;-61
2020/12/04 06:27:12;;;;;;;40.78;16.37;;;;;;;0.26;77.82;97751.61;2216918;80;21155;-61
2020/12/04 06:30:14;;;;;;;38.85;15.43;;;;;;;0.25;77.80;97751.24;2216918;80;21281;-62
2020/12/04 06:33:16;;;;;;;;;;;;;;;0.23;77.83;97754.31;2219590;80;21574;-61
2020/12/04 06:36:17;;;;;;;42.93;16.05;;;;;;;0.23;77.81;97742.70;2217365;80;20234;-61
2020/12/04 06:39:18;;;;;;;39.53;15.53;;;;;;;0.21;77.82;97735.02;2217338;80;21294;-61
2020/12/04 06:42:19;;;;;;;40.67;16.20;;;;;;;0.22;77.94;97743.16;2216802;80;21273;-61
2020/12/04 06:45:21;;;;;;;41.50;16.50;;;;;;;0.24;77.94;97750.84;2215363;80;21241;-62
2020/12/04 06:48:22;;;;;;;41.42;15.60;;;;;;;0.25;77.79;97737.89;2209771;81;21570;-61
2020/12/04 06:51:23;;;;;;;41.20;16.10;;;;;;;0.28;77.77;97726.16;2209590;81;21289;-60
2020/12/04 06:54:25;;;;;;;39.63;15.63;;;;;;;0.30;77.71;97729.97;2209615;81;21285;-61
2020/12/04 06:57:26;;;;;;;38.58;14.98;;;;;;;0.31;77.71;97717.02;2209693;80;21293;-61
2020/12/04 07:00:27;;;;;;;40.70;15.90;;;;;;;0.34;77.53;97718.64;2209652;81;21269;-61
2020/12/04 07:03:29;;;;;;;37.00;15.45;;;;;;;0.37;77.44;97732.72;2209720;81;21300;-61
2020/12/04 07:06:30;;;;;;;41.58;15.18;;;;;;;0.41;77.43;97721.39;2209735;80;21285;-61
2020/12/04 07:09:32;;;;;;;40.80;13.78;;;;;;;0.45;77.33;97718.26;2210006;81;21281;-61
2020/12/04 07:12:33;;;;;;;40.23;15.93;;;;;;;0.51;77.19;97711.11;2187809;81;21565;-61
2020/12/04 07:15:34;;;;;;;39.63;14.70;;;;;;;0.59;77.16;97725.45;2209686;80;21269;-61
2020/12/04 07:18:35;;;;;;;38.95;14.98;;;;;;;0.65;77.00;97726.07;2210127;81;21329;-61
2020/12/04 07:21:37;;;;;;;38.42;15.15;;;;;;;0.76;76.72;97733.84;2209680;81;21792;-61
2020/12/04 07:24:38;;;;;;;37.20;14.60;;;;;;;0.85;76.69;97733.50;2210104;80;21325;-61
2020/12/04 07:27:40;;;;;;;37.45;15.48;;;;;;;0.94;76.59;97738.75;2209595;81;21277;-61
2020/12/04 07:30:41;;;;;;;39.90;16.75;;;;;;;1.03;76.57;97732.78;2209733;81;21120;-60
2020/12/04 07:33:42;;;;;;;34.80;13.80;;;;;;;1.12;76.17;97735.45;2209658;81;21285;-61
2020/12/04 07:36:44;;;;;;;40.90;16.52;;;;;;;1.17;75.83;97736.08;2209614;81;21103;-61
2020/12/04 07:39:46;;;;;;;36.98;14.15;;;;;;;1.23;75.78;97741.45;2187823;81;21214;-61
2020/12/04 07:42:48;;;;;;;39.65;15.95;;;;;;;1.30;75.76;97744.17;2209611;80;21269;-61
2020/12/04 07:45:49;;;;;;;35.88;15.58;;;;;;;1.36;75.35;97752.96;2212778;80;21301;-60
2020/12/04 07:48:51;;;;;;;38.20;15.73;;;;;;;1.37;75.23;97767.57;2220894;80;21744;-61
2020/12/04 07:51:52;;;;;;;38.48;15.88;;;;;;;1.41;75.07;97785.09;2220179;80;21636;-61
2020/12/04 07:54:53;;;;;;;40.55;16.00;;;;;;;1.44;75.38;97790.56;2220259;80;21103;-61
2020/12/04 07:57:55;;;;;;;41.95;17.27;;;;;;;1.45;74.90;97794.41;2220340;80;21151;-61
2020/12/04 08:00:56;;;;;;;43.30;17.10;;;;;;;1.49;75.36;97805.45;2220262;80;21150;-61
2020/12/04 08:03:58;;;;;;;40.20;17.07;;;;;;;1.55;75.22;97816.39;2191692;80;21319;-61
2020/12/04 08:07:00;;;;;;;38.98;17.05;;;;;;;1.58;74.98;97815.44;2220342;80;21146;-61
2020/12/04 08:10:01;;;;;;;39.10;16.10;;;;;;;1.64;74.77;97808.71;2220638;80;21102;-61
2020/12/04 08:13:03;;;;;;;38.70;16.10;;;;;;;1.69;74.54;97797.70;2220343;80;21122;-61
2020/12/04 08:16:04;;;;;;;37.70;15.85;;;;;;;1.76;74.62;97788.42;2220440;80;21150;-61
2020/12/04 08:19:11;;;;;;;41.08;16.80;;;;;;;1.77;74.17;97797.84;2191569;80;21282;-61
2020/12/04 08:22:12;;;;;;;42.45;18.12;;;;;;;1.78;74.03;97793.93;2220440;80;21296;-61
2020/12/04 08:25:13;;;;;;;40.63;16.53;;;;;;;1.81;74.43;97782.59;2220953;80;21272;-61
2020/12/04 08:28:15;;;;;;;39.90;15.88;;;;;;;1.83;74.57;97791.14;2220761;80;21701;-61
2020/12/04 08:31:17;;;;;;;41.45;15.72;;;;;;;1.89;74.22;97793.46;2220490;80;21288;-61
2020/12/04 08:34:18;;;;;;;38.17;15.55;;;;;;;1.91;74.23;97792.93;2220440;80;21288;-62
2020/12/04 08:37:19;;;;;;;38.65;15.40;;;;;;;1.95;74.12;97786.73;2220435;80;21303;-62
2020/12/04 08:40:20;;;;;;;39.00;16.55;;;;;;;2.02;74.01;97788.61;2220502;80;21297;-62
2020/12/04 08:43:22;;;;;;;38.40;15.83;;;;;;;2.12;73.93;97786.47;2220370;80;21281;-61
2020/12/04 08:46:26;;;;;;;40.15;15.93;;;;;;;2.20;73.83;97790.87;2219056;80;21115;-61
2020/12/04 08:49:27;;;;;;;37.15;15.80;;;;;;;2.26;74.11;97802.23;2216649;80;21264;-62
2020/12/04 08:52:29;;;;;;;39.15;15.72;;;;;;;2.31;74.06;97810.62;2217514;80;21300;-62
2020/12/04 08:55:41;;;;;;;36.33;15.15;;;;;;;2.34;74.05;97822.59;2217323;80;21170;-61
2020/12/04 08:58:44;;;;;;;40.08;16.07;;;;;;;2.38;73.51;97815.91;2217077;80;21143;-62
2020/12/04 09:01:46;;;;;;;38.58;14.83;;;;;;;2.49;73.91;97790.86;2216908;80;21313;-61
2020/12/04 09:04:48;;;;;;;39.60;16.23;;;;;;;2.59;73.66;97799.06;2217324;80;21138;-61
2020/12/04 09:07:53;;;;;;;40.12;17.50;;;;;;;2.69;73.71;97804.20;2217315;80;21131;-61
2020/12/04 09:10:55;;;;;;;35.75;15.70;;;;;;;2.76;73.97;97787.48;2217430;80;21099;-61
2020/12/04 09:13:56;;;;;;;37.67;15.67;;;;;;;2.87;73.56;97782.25;2217471;80;21288;-62
2020/12/04 09:16:58;;;;;;;37.10;15.08;;;;;;;2.97;73.25;97790.45;2217255;80;21154;-61
2020/12/04 09:20:00;;;;;;;37.98;16.00;;;;;;;3.03;72.73;97797.48;2217574;80;21134;-61
2020/12/04 09:23:02;;;;;;;37.48;15.90;;;;;;;3.09;72.52;97792.48;2217686;80;21527;-61
2020/12/04 09:26:03;;;;;;;36.23;14.70;;;;;;;3.15;72.77;97786.13;2217051;80;21606;-61
2020/12/04 09:29:04;;;;;;;35.92;14.38;;;;;;;3.22;72.38;97788.81;2217176;80;21543;-61
2020/12/04 09:32:05;;;;;;;36.50;14.90;;;;;;;3.27;72.23;97781.67;2217166;80;21690;-61
2020/12/04 09:35:07;;;;;;;35.15;13.90;;;;;;;3.31;72.08;97785.80;2216994;80;21728;-61
2020/12/04 09:38:09;;;;;;;36.38;15.50;;;;;;;3.32;72.39;97778.42;2217027;80;21154;-61
2020/12/04 09:41:10;;;;;;;36.80;14.83;;;;;;;3.33;72.27;97753.33;2217380;80;21286;-62
2020/12/04 09:44:11;;;;;;;38.78;15.25;;;;;;;3.35;72.35;97744.56;2216929;80;21592;-61
2020/12/04 09:47:13;;;;;;;37.35;15.50;;;;;;;3.39;72.88;97747.39;2217310;80;21276;-62
2020/12/04 09:50:15;;;;;;;37.08;14.55;;;;;;;3.47;72.56;97745.70;2216985;80;21154;-61
2020/12/04 09:53:17;;;;;;;40.92;16.35;;;;;;;3.57;72.28;97752.11;2217254;80;21277;-61
2020/12/04 09:56:29;;;;;;;;;;;;;;;;;;;;;
2020/12/04 09:59:31;;;;;;;35.63;15.15;;;;;;;3.80;71.73;97719.83;2260548;79;22944;-61
2020/12/04 10:02:32;;;;;;;38.95;15.72;;;;;;;3.83;71.10;97720.14;2227362;80;21125;-61
2020/12/04 10:05:33;;;;;;;35.03;14.43;;;;;;;3.91;71.34;97703.73;2227743;80;21720;-61
2020/12/04 10:08:35;;;;;;;41.25;17.17;;;;;;;3.99;71.10;97702.02;2227726;80;21716;-61
2020/12/04 10:11:36;;;;;;;34.13;14.38;;;;;;;4.07;70.73;97685.59;2227303;80;21186;-60
2020/12/04 10:14:40;;;;;;;39.67;15.93;;;;;;;4.15;71.08;97683.44;2227324;80;21166;-61
2020/12/04 10:17:41;;;;;;;37.63;16.07;;;;;;;4.22;71.00;97685.70;2227296;80;21138;-61
2020/12/04 10:20:42;;;;;;;35.78;14.85;;;;;;;4.25;71.00;97690.28;2227362;80;21601;-61
2020/12/04 10:23:44;;;;;;;38.50;15.98;;;;;;;4.28;70.81;97704.39;2227427;80;21589;-61
2020/12/04 10:26:45;;;;;;;42.33;16.87;;;;;;;4.38;71.09;97707.78;2227410;80;21566;-61
2020/12/04 10:29:46;;;;;;;35.68;15.03;;;;;;;4.47;71.37;97701.64;2227737;80;21311;-61
2020/12/04 10:32:47;;;;;;;39.53;16.60;;;;;;;4.59;70.89;97696.70;2227406;80;21153;-61
2020/12/04 10:35:48;;;;;;;35.55;15.08;;;;;;;4.65;70.14;97683.37;2227355;80;21142;-61
2020/12/04 10:38:50;;;;;;;38.75;15.98;;;;;;;4.67;69.90;97678.95;2227582;80;21150;-61
2020/12/04 10:41:51;;;;;;;37.65;15.00;;;;;;;4.68;70.09;97680.59;2227411;80;21590;-61
2020/12/04 10:44:52;;;;;;;38.25;16.23;;;;;;;4.66;70.47;97676.79;2227330;80;21248;-61
2020/12/04 10:47:54;;;;;;;33.05;13.98;;;;;;;4.64;70.36;97664.36;2227719;80;21288;-61
2020/12/04 10:50:55;;;;;;;30.48;11.93;;;;;;;4.67;70.59;97665.48;2227674;80;21303;-61
2020/12/04 10:53:57;;;;;;;31.82;12.90;;;;;;;4.75;70.42;97672.02;2227451;80;21291;-61
2020/12/04 10:56:58;;;;;;;33.90;13.20;;;;;;;4.90;69.63;97665.11;2226386;80;21114;-61
2020/12/04 10:59:59;;;;;;;29.77;12.10;;;;;;;5.04;69.12;97661.27;2210871;81;21249;-61
2020/12/04 11:03:07;;;;;;;33.35;13.60;;;;;;;5.17;69.76;97645.36;2210835;81;21253;-61
2020/12/04 11:06:04;;;;;;;32.20;13.40;;;;;;;5.27;69.12;97628.77;2210006;80;21705;-61
2020/12/04 11:09:05;;;;;;;33.78;12.85;;;;;;;5.38;69.48;97645.03;2210161;81;21309;-61
2020/12/04 11:12:07;;;;;;;30.20;12.10;;;;;;;5.50;68.49;97646.92;2209835;81;21296;-61
2020/12/04 11:15:08;;;;;;;30.05;11.90;;;;;;;5.61;69.48;97655.84;2209790;81;21271;-61
2020/12/04 11:18:10;;;;;;;27.95;11.83;;;;;;;5.69;69.26;97645.35;2210019;81;21147;-61
2020/12/04 11:21:11;;;;;;;28.77;11.43;;;;;;;5.84;67.99;97633.64;2209823;81;21171;-61
2020/12/04 11:24:12;;;;;;;29.30;11.35;;;;;;;5.93;67.38;97633.08;2210103;81;21732;-61
2020/12/04 11:27:14;;;;;;;32.20;11.65;;;;;;;5.97;67.60;97631.98;2209880;81;21158;-61
2020/12/04 11:30:15;;;;;;;30.88;11.88;;;;;;;5.97;67.61;97629.83;2210160;81;21297;-61
2020/12/04 11:33:16;;;;;;;25.55;9.88;;;;;;;6.02;68.31;97622.59;2209753;81;21293;-61
2020/12/04 11:36:18;;;;;;;26.48;10.28;;;;;;;6.11;67.93;97625.95;2210142;81;21265;-61
2020/12/04 11:39:19;;;;;;;24.98;9.75;;;;;;;6.20;67.99;97601.92;2209953;81;21154;-61
2020/12/04 11:42:20;;;;;;;28.60;10.63;;;;;;;6.32;67.63;97594.28;2209698;81;21293;-61
2020/12/04 11:45:22;;;;;;;28.42;10.13;;;;;;;6.38;67.39;97583.49;2210376;81;21653;-61
2020/12/04 11:48:23;;;;;;;25.60;10.63;;;;;;;6.44;67.65;97590.05;2209720;81;21119;-61
2020/12/04 11:51:24;;;;;;;27.10;10.53;;;;;;;6.47;67.91;97580.77;2209746;81;21713;-61
2020/12/04 11:54:25;;;;;;;26.20;10.13;;;;;;;6.51;67.14;97584.37;2209718;81;21154;-62
2020/12/04 11:57:27;;;;;;;26.25;9.50;;;;;;;6.55;67.65;97582.38;2187504;81;21562;-61
2020/12/04 12:00:28;;;;;;;27.00;10.32;;;;;;;6.57;66.89;97572.72;2209886;81;21712;-62
2020/12/04 12:03:29;;;;;;;27.82;10.48;;;;;;;6.58;67.38;97570.48;2210051;81;21265;-61
2020/12/04 12:06:31;;;;;;;25.32;9.75;;;;;;;6.63;67.69;97572.31;2209800;81;21555;-61
2020/12/04 12:09:32;;;;;;;27.55;10.88;;;;;;;6.73;67.50;97577.77;2209736;80;21633;-61
2020/12/04 12:12:34;;;;;;;29.30;9.98;;;;;;;6.84;66.79;97564.88;2209701;81;21590;-62
2020/12/04 12:15:35;;;;;;;29.65;10.78;;;;;;;6.92;66.75;97588.67;2209813;81;21601;-61
2020/12/04 12:18:36;;;;;;;27.32;9.95;;;;;;;6.97;66.68;97568.81;2210194;81;21182;-61
2020/12/04 12:21:40;;;;;;;27.52;10.58;;;;;;;7.09;65.70;97557.55;2209768;81;21143;-62
2020/12/04 12:24:41;;;;;;;26.33;10.15;;;;;;;7.13;66.58;97567.31;2209322;80;21103;-61
2020/12/04 12:27:42;;;;;;;26.48;10.25;;;;;;;7.18;65.69;97561.30;2210176;81;21147;-61
2020/12/04 12:30:43;;;;;;;26.37;10.10;;;;;;;7.18;66.00;97579.55;2210055;81;21543;-61
2020/12/04 12:33:48;;;;;;;25.43;9.47;;;;;;;7.17;64.79;97570.09;2209915;81;21301;-61
2020/12/04 12:36:49;;;;;;;27.22;10.08;;;;;;;7.15;65.80;97581.07;2209890;80;21281;-61
2020/12/04 12:39:50;;;;;;;30.68;12.05;;;;;;;7.09;65.39;97567.97;2210195;81;21135;-61
2020/12/04 12:42:53;;;;;;;25.35;9.55;;;;;;;7.09;66.51;97563.23;2209806;81;21697;-61
2020/12/04 12:45:54;;;;;;;25.65;9.75;;;;;;;7.07;65.99;97570.34;2210063;80;21285;-62
2020/12/04 12:48:55;;;;;;;24.67;9.40;;;;;;;7.11;65.97;97568.72;2210168;81;21135;-61
2020/12/04 12:51:57;;;;;;;24.23;9.95;;;;;;;7.38;64.81;97578.22;2209889;81;21300;-62
2020/12/04 12:54:58;;;;;;;26.40;10.18;;;;;;;7.67;64.92;97578.48;2209789;80;21285;-62
2020/12/04 12:57:59;;;;;;;27.77;9.33;;;;;;;7.94;64.24;97578.33;2211060;80;21265;-61
2020/12/04 13:01:01;;;;;;;29.70;10.38;;;;;;;8.13;62.85;97575.25;2216844;80;21701;-62
2020/12/04 13:04:02;;;;;;;27.10;9.95;;;;;;;8.25;64.47;97618.80;2217461;80;21542;-62
2020/12/04 13:07:03;;;;;;;23.18;9.15;;;;;;;8.17;62.35;97618.50;2216942;80;21273;-62
2020/12/04 13:10:04;;;;;;;25.10;9.70;;;;;;;8.21;62.71;97626.48;2217256;80;21261;-61
2020/12/04 13:13:06;;;;;;;34.63;11.88;;;;;;;8.21;62.13;97633.02;2216844;80;21741;-61
2020/12/04 13:16:07;;;;;;;27.30;11.40;;;;;;;8.19;62.73;97623.16;2217097;80;21515;-62
2020/12/04 13:19:08;;;;;;;26.68;10.63;;;;;;;8.14;63.34;97623.94;2216888;80;21705;-62
2020/12/04 13:22:09;;;;;;;30.45;11.33;;;;;;;8.09;63.26;97626.06;2217128;80;21260;-61
2020/12/04 13:25:10;;;;;;;27.73;10.08;;;;;;;8.03;62.87;97639.52;2217363;80;21261;-62
2020/12/04 13:28:12;;;;;;;29.30;11.00;;;;;;;7.96;63.58;97654.32;2217228;80;21273;-62
2020/12/04 13:31:13;;;;;;;28.75;11.15;;;;;;;7.92;64.19;97658.08;2216766;80;21285;-62
2020/12/04 13:34:15;;;;;;;27.20;10.65;;;;;;;7.84;63.29;97655.15;2216909;80;21146;-62
2020/12/04 13:37:16;;;;;;;27.87;11.03;;;;;;;7.77;64.40;97662.58;2216810;80;21146;-62
2020/12/04 13:40:17;;;;;;;28.70;10.85;;;;;;;7.72;64.80;97667.27;2216851;80;21124;-62
2020/12/04 13:43:19;;;;;;;28.00;10.72;;;;;;;7.66;63.75;97661.62;2217021;80;21149;-62
2020/12/04 13:46:20;;;;;;;27.13;10.65;;;;;;;7.58;64.79;97657.75;2216913;80;21285;-62
2020/12/04 13:49:22;;;;;;;;;;;;;;;7.53;64.56;97650.72;2219943;80;21289;-62
2020/12/04 13:52:24;;;;;;;25.48;9.18;;;;;;;7.45;64.93;97656.91;2217261;80;20231;-62
2020/12/04 13:55:25;;;;;;;29.32;12.15;;;;;;;7.37;65.00;97657.44;2216900;80;21721;-62
2020/12/04 13:58:26;;;;;;;29.87;13.25;;;;;;;7.31;65.26;97663.52;2214843;80;21261;-61
2020/12/04 14:01:27;;;;;;;30.55;13.85;;;;;;;7.25;65.17;97682.53;2209724;81;21277;-62
2020/12/04 14:04:29;;;;;;;28.40;12.58;;;;;;;7.18;64.76;97689.56;2210097;81;21293;-62